sensor_id;sensor_type;location;lat;lon;timestamp;pressure;altitude;pressure_sealevel;temperature;humidity
71504;BME280;59323;50.874;7.028;2023-04-20T00:00:00;101570.28;;;7.07;55.34
71504;BME280;59323;50.874;7.028;2023-04-20T00:02:25;101582.38;;;7.09;55.82
71504;BME280;59323;50.874;7.028;2023-04-20T00:04:51;101571.41;;;7.06;55.35
71504;BME280;59323;50.874;7.028;2023-04-20T00:07:16;101564.72;;;7.03;55.97
71504;BME280;59323;50.874;7.028;2023-04-20T00:09:42;101572.19;;;7.06;55.79
71504;BME280;59323;50.874;7.028;2023-04-20T00:12:07;101568.22;;;7.04;53.88
71504;BME280;59323;50.874;7.028;2023-04-20T00:14:33;101554.56;;;7.00;55.09
71504;BME280;59323;50.874;7.028;2023-04-20T00:16:58;101549.00;;;6.96;54.67
71504;BME280;59323;50.874;7.028;2023-04-20T00:19:23;101545.34;;;6.92;54.44
71504;BME280;59323;50.874;7.028;2023-04-20T00:21:51;101541.53;;;6.93;54.53
71504;BME280;59323;50.874;7.028;2023-04-20T00:24:17;101538.03;;;6.93;54.34
71504;BME280;59323;50.874;7.028;2023-04-20T00:26:42;101534.22;;;6.94;55.56
71504;BME280;59323;50.874;7.028;2023-04-20T00:29:07;101523.41;;;6.94;55.00
71504;BME280;59323;50.874;7.028;2023-04-20T00:31:33;101522.91;;;7.09;53.04
71504;BME280;59323;50.874;7.028;2023-04-20T00:33:58;101524.34;;;7.07;52.62
71504;BME280;59323;50.874;7.028;2023-04-20T00:36:23;101511.78;;;7.02;52.76
71504;BME280;59323;50.874;7.028;2023-04-20T00:38:49;101501.63;;;6.99;53.29
71504;BME280;59323;50.874;7.028;2023-04-20T00:41:14;101518.16;;;7.06;52.21
71504;BME280;59323;50.874;7.028;2023-04-20T00:43:52;101502.25;;;7.05;53.82
71504;BME280;59323;50.874;7.028;2023-04-20T00:46:21;101497.50;;;7.02;52.68
71504;BME280;59323;50.874;7.028;2023-04-20T00:48:49;101502.91;;;7.02;53.32
71504;BME280;59323;50.874;7.028;2023-04-20T00:51:15;101504.00;;;7.00;54.38
71504;BME280;59323;50.874;7.028;2023-04-20T00:53:40;101493.03;;;6.97;54.59
71504;BME280;59323;50.874;7.028;2023-04-20T00:56:06;101490.34;;;6.97;53.64
71504;BME280;59323;50.874;7.028;2023-04-20T00:58:32;101497.16;;;7.03;53.90
71504;BME280;59323;50.874;7.028;2023-04-20T01:00:58;101493.19;;;7.00;53.87
71504;BME280;59323;50.874;7.028;2023-04-20T01:03:23;101486.50;;;7.07;52.38
71504;BME280;59323;50.874;7.028;2023-04-20T01:05:49;101482.38;;;7.09;52.34
71504;BME280;59323;50.874;7.028;2023-04-20T01:08:15;101475.06;;;7.10;53.67
71504;BME280;59323;50.874;7.028;2023-04-20T01:10:41;101476.16;;;7.09;54.33
71504;BME280;59323;50.874;7.028;2023-04-20T01:13:06;101471.25;;;7.11;53.12
71504;BME280;59323;50.874;7.028;2023-04-20T01:15:31;101473.28;;;7.14;54.53
71504;BME280;59323;50.874;7.028;2023-04-20T01:17:58;101473.78;;;7.16;53.67
71504;BME280;59323;50.874;7.028;2023-04-20T01:20:23;101466.31;;;7.13;53.98
71504;BME280;59323;50.874;7.028;2023-04-20T01:22:50;101471.38;;;7.14;52.91
71504;BME280;59323;50.874;7.028;2023-04-20T01:25:17;101469.47;;;7.15;53.58
71504;BME280;59323;50.874;7.028;2023-04-20T01:27:43;101468.53;;;7.19;53.72
71504;BME280;59323;50.874;7.028;2023-04-20T01:30:09;101456.94;;;7.19;53.26
71504;BME280;59323;50.874;7.028;2023-04-20T01:32:35;101464.41;;;7.22;53.49
71504;BME280;59323;50.874;7.028;2023-04-20T01:35:01;101460.25;;;7.24;53.52
71504;BME280;59323;50.874;7.028;2023-04-20T01:37:27;101455.63;;;7.25;53.55
71504;BME280;59323;50.874;7.028;2023-04-20T01:39:53;101457.41;;;7.21;54.25
71504;BME280;59323;50.874;7.028;2023-04-20T01:42:18;101455.50;;;7.21;53.33
71504;BME280;59323;50.874;7.028;2023-04-20T01:44:43;101454.06;;;7.24;53.78
71504;BME280;59323;50.874;7.028;2023-04-20T01:47:09;101457.22;;;7.26;54.78
71504;BME280;59323;50.874;7.028;2023-04-20T01:49:34;101450.22;;;7.25;53.55
71504;BME280;59323;50.874;7.028;2023-04-20T01:51:59;101451.34;;;7.24;53.85
71504;BME280;59323;50.874;7.028;2023-04-20T01:54:25;101445.63;;;7.25;54.66
71504;BME280;59323;50.874;7.028;2023-04-20T01:56:50;101439.09;;;7.26;53.83
71504;BME280;59323;50.874;7.028;2023-04-20T01:59:15;101430.84;;;7.23;54.42
71504;BME280;59323;50.874;7.028;2023-04-20T02:01:41;101435.44;;;7.22;54.73
71504;BME280;59323;50.874;7.028;2023-04-20T02:04:07;101440.34;;;7.29;53.97
71504;BME280;59323;50.874;7.028;2023-04-20T02:06:33;101433.22;;;7.24;54.64
71504;BME280;59323;50.874;7.028;2023-04-20T02:08:58;101434.47;;;7.27;55.30
71504;BME280;59323;50.874;7.028;2023-04-20T02:11:23;101433.03;;;7.29;55.33
71504;BME280;59323;50.874;7.028;2023-04-20T02:13:49;101421.09;;;7.30;53.67
71504;BME280;59323;50.874;7.028;2023-04-20T02:16:14;101422.03;;;7.35;54.91
71504;BME280;59323;50.874;7.028;2023-04-20T02:18:40;101422.38;;;7.33;55.70
71504;BME280;59323;50.874;7.028;2023-04-20T02:21:05;101415.38;;;7.32;55.78
71504;BME280;59323;50.874;7.028;2023-04-20T02:23:30;101408.84;;;7.33;56.36
71504;BME280;59323;50.874;7.028;2023-04-20T02:25:56;101404.09;;;7.30;56.29
71504;BME280;59323;50.874;7.028;2023-04-20T02:28:21;101385.50;;;7.28;56.11
71504;BME280;59323;50.874;7.028;2023-04-20T02:30:47;101394.69;;;7.36;56.53
71504;BME280;59323;50.874;7.028;2023-04-20T02:33:12;101379.38;;;7.40;54.85
71504;BME280;59323;50.874;7.028;2023-04-20T02:35:37;101382.75;;;7.37;55.57
71504;BME280;59323;50.874;7.028;2023-04-20T02:38:03;101385.78;;;7.36;55.38
71504;BME280;59323;50.874;7.028;2023-04-20T02:40:28;101386.06;;;7.43;56.12
71504;BME280;59323;50.874;7.028;2023-04-20T02:42:54;101385.13;;;7.39;56.71
71504;BME280;59323;50.874;7.028;2023-04-20T02:45:19;101375.44;;;7.38;56.43
71504;BME280;59323;50.874;7.028;2023-04-20T02:47:44;101371.16;;;7.37;56.15
71504;BME280;59323;50.874;7.028;2023-04-20T02:50:11;101372.72;;;7.38;56.41
71504;BME280;59323;50.874;7.028;2023-04-20T02:52:36;101369.22;;;7.37;56.04
71504;BME280;59323;50.874;7.028;2023-04-20T02:55:02;101363.69;;;7.34;56.77
71504;BME280;59323;50.874;7.028;2023-04-20T02:57:27;101367.97;;;7.35;56.03
71504;BME280;59323;50.874;7.028;2023-04-20T02:59:52;101355.56;;;7.34;56.89
71504;BME280;59323;50.874;7.028;2023-04-20T03:02:18;101355.56;;;7.34;56.59
71504;BME280;59323;50.874;7.028;2023-04-20T03:04:43;101358.94;;;7.30;57.10
71504;BME280;59323;50.874;7.028;2023-04-20T03:07:08;101355.44;;;7.30;57.99
71504;BME280;59323;50.874;7.028;2023-04-20T03:09:36;101356.09;;;7.27;58.04
71504;BME280;59323;50.874;7.028;2023-04-20T03:12:05;101358.13;;;7.30;58.71
71504;BME280;59323;50.874;7.028;2023-04-20T03:14:30;101352.59;;;7.26;58.91
71504;BME280;59323;50.874;7.028;2023-04-20T03:16:56;101347.31;;;7.30;59.73
71504;BME280;59323;50.874;7.028;2023-04-20T03:19:22;101349.06;;;7.35;58.76
71504;BME280;59323;50.874;7.028;2023-04-20T03:21:47;101355.56;;;7.34;58.17
71504;BME280;59323;50.874;7.028;2023-04-20T03:24:12;101348.13;;;7.30;59.47
71504;BME280;59323;50.874;7.028;2023-04-20T03:26:38;101352.72;;;7.30;60.08
71504;BME280;59323;50.874;7.028;2023-04-20T03:29:03;101350.81;;;7.30;60.57
71504;BME280;59323;50.874;7.028;2023-04-20T03:31:29;101354.78;;;7.33;60.84
71504;BME280;59323;50.874;7.028;2023-04-20T03:33:54;101344.63;;;7.30;61.17
71504;BME280;59323;50.874;7.028;2023-04-20T03:36:19;101347.66;;;7.28;61.19
71504;BME280;59323;50.874;7.028;2023-04-20T03:38:45;101341.78;;;7.26;60.31
71504;BME280;59323;50.874;7.028;2023-04-20T03:41:10;101340.84;;;7.22;60.58
71504;BME280;59323;50.874;7.028;2023-04-20T03:43:36;101339.59;;;7.20;60.73
71504;BME280;59323;50.874;7.028;2023-04-20T03:46:01;101341.66;;;7.23;60.60
71504;BME280;59323;50.874;7.028;2023-04-20T03:48:26;101345.13;;;7.23;61.17
71504;BME280;59323;50.874;7.028;2023-04-20T03:50:52;101337.81;;;7.24;60.82
71504;BME280;59323;50.874;7.028;2023-04-20T03:53:17;101332.75;;;7.22;61.10
71504;BME280;59323;50.874;7.028;2023-04-20T03:55:42;101332.75;;;7.22;60.98
71504;BME280;59323;50.874;7.028;2023-04-20T03:58:08;101327.66;;;7.21;61.16
71504;BME280;59323;50.874;7.028;2023-04-20T04:00:33;101322.91;;;7.18;61.57
71504;BME280;59323;50.874;7.028;2023-04-20T04:02:59;101314.00;;;7.17;62.35
71504;BME280;59323;50.874;7.028;2023-04-20T04:05:24;101324.63;;;7.22;61.74
71504;BME280;59323;50.874;7.028;2023-04-20T04:07:50;101329.72;;;7.24;60.78
71504;BME280;59323;50.874;7.028;2023-04-20T04:10:16;101326.16;;;7.32;56.83
71504;BME280;59323;50.874;7.028;2023-04-20T04:12:43;101319.69;;;7.24;57.74
71504;BME280;59323;50.874;7.028;2023-04-20T04:15:10;101329.84;;;7.27;56.36
71504;BME280;59323;50.874;7.028;2023-04-20T04:17:36;101324.91;;;7.29;57.04
71504;BME280;59323;50.874;7.028;2023-04-20T04:20:02;101322.19;;;7.29;55.61
71504;BME280;59323;50.874;7.028;2023-04-20T04:22:27;101321.94;;;7.22;56.99
71504;BME280;59323;50.874;7.028;2023-04-20T04:24:53;101322.25;;;7.21;56.45
71504;BME280;59323;50.874;7.028;2023-04-20T04:27:18;101325.31;;;7.11;57.14
71504;BME280;59323;50.874;7.028;2023-04-20T04:29:46;101325.31;;;7.11;57.77
71504;BME280;59323;50.874;7.028;2023-04-20T04:32:14;101322.13;;;7.09;58.96
71504;BME280;59323;50.874;7.028;2023-04-20T04:34:40;101318.50;;;7.05;59.33
71504;BME280;59323;50.874;7.028;2023-04-20T04:37:09;101323.13;;;7.04;59.49
71504;BME280;59323;50.874;7.028;2023-04-20T04:39:35;101328.06;;;7.02;60.87
71504;BME280;59323;50.874;7.028;2023-04-20T04:42:00;101324.88;;;7.00;60.53
71504;BME280;59323;50.874;7.028;2023-04-20T04:44:26;101319.66;;;6.95;61.64
71504;BME280;59323;50.874;7.028;2023-04-20T04:46:52;101319.38;;;6.88;63.31
71504;BME280;59323;50.874;7.028;2023-04-20T04:49:18;101324.16;;;6.82;65.82
71504;BME280;59323;50.874;7.028;2023-04-20T04:51:44;101320.06;;;6.76;65.25
71504;BME280;59323;50.874;7.028;2023-04-20T04:54:11;101315.50;;;6.68;65.75
71504;BME280;59323;50.874;7.028;2023-04-20T04:56:36;101312.97;;;6.63;66.23
71504;BME280;59323;50.874;7.028;2023-04-20T04:59:02;101314.41;;;6.60;67.05
71504;BME280;59323;50.874;7.028;2023-04-20T05:01:27;101317.91;;;6.61;66.71
71504;BME280;59323;50.874;7.028;2023-04-20T05:03:52;101320.28;;;6.62;65.89
71504;BME280;59323;50.874;7.028;2023-04-20T05:06:18;101311.06;;;6.63;66.21
71504;BME280;59323;50.874;7.028;2023-04-20T05:08:43;101315.34;;;6.64;66.95
71504;BME280;59323;50.874;7.028;2023-04-20T05:11:09;101313.59;;;6.68;66.27
71504;BME280;59323;50.874;7.028;2023-04-20T05:13:34;101316.75;;;6.71;67.36
71504;BME280;59323;50.874;7.028;2023-04-20T05:16:00;101315.97;;;6.70;67.43
71504;BME280;59323;50.874;7.028;2023-04-20T05:18:25;101305.66;;;6.63;67.47
71504;BME280;59323;50.874;7.028;2023-04-20T05:20:51;101311.03;;;6.72;67.21
71504;BME280;59323;50.874;7.028;2023-04-20T05:23:16;101310.56;;;6.70;67.00
71504;BME280;59323;50.874;7.028;2023-04-20T05:25:42;101302.31;;;6.66;67.48
71504;BME280;59323;50.874;7.028;2023-04-20T05:28:07;101311.50;;;6.74;67.68
71504;BME280;59323;50.874;7.028;2023-04-20T05:30:32;101293.88;;;6.68;67.81
71504;BME280;59323;50.874;7.028;2023-04-20T05:32:58;101293.41;;;6.66;68.21
71504;BME280;59323;50.874;7.028;2023-04-20T05:35:23;101301.00;;;6.73;66.53
71504;BME280;59323;50.874;7.028;2023-04-20T05:37:48;101312.13;;;6.71;67.90
71504;BME280;59323;50.874;7.028;2023-04-20T05:40:14;101306.75;;;6.71;67.50
71504;BME280;59323;50.874;7.028;2023-04-20T05:42:39;101304.97;;;6.75;68.30
71504;BME280;59323;50.874;7.028;2023-04-20T05:45:05;101304.97;;;6.75;68.12
71504;BME280;59323;50.874;7.028;2023-04-20T05:47:31;101306.38;;;6.81;68.73
71504;BME280;59323;50.874;7.028;2023-04-20T05:49:56;101301.91;;;6.85;68.52
71504;BME280;59323;50.874;7.028;2023-04-20T05:52:22;101299.53;;;6.84;68.15
71504;BME280;59323;50.874;7.028;2023-04-20T05:54:47;101307.78;;;6.87;68.06
71504;BME280;59323;50.874;7.028;2023-04-20T05:57:14;101293.66;;;6.82;68.94
71504;BME280;59323;50.874;7.028;2023-04-20T05:59:39;101302.88;;;6.81;69.08
71504;BME280;59323;50.874;7.028;2023-04-20T06:02:04;101316.53;;;6.84;69.02
71504;BME280;59323;50.874;7.028;2023-04-20T06:04:30;101309.56;;;6.83;66.88
71504;BME280;59323;50.874;7.028;2023-04-20T06:06:55;101308.25;;;6.89;67.67
71504;BME280;59323;50.874;7.028;2023-04-20T06:09:21;101309.69;;;6.87;67.47
71504;BME280;59323;50.874;7.028;2023-04-20T06:11:46;101309.41;;;6.80;66.66
71504;BME280;59323;50.874;7.028;2023-04-20T06:14:11;101301.81;;;6.73;68.57
71504;BME280;59323;50.874;7.028;2023-04-20T06:16:38;101314.66;;;6.76;68.97
71504;BME280;59323;50.874;7.028;2023-04-20T06:19:04;101302.91;;;6.72;68.40
71504;BME280;59323;50.874;7.028;2023-04-20T06:21:29;101309.72;;;6.78;69.65
71504;BME280;59323;50.874;7.028;2023-04-20T06:23:57;101312.59;;;6.73;71.60
71504;BME280;59323;50.874;7.028;2023-04-20T06:26:22;101305.19;;;6.61;73.34
71504;BME280;59323;50.874;7.028;2023-04-20T06:28:47;101316.00;;;6.61;74.02
71504;BME280;59323;50.874;7.028;2023-04-20T06:31:13;101310.91;;;6.60;74.75
71504;BME280;59323;50.874;7.028;2023-04-20T06:33:38;101303.94;;;6.59;76.33
71504;BME280;59323;50.874;7.028;2023-04-20T06:36:07;101299.03;;;6.52;77.82
71504;BME280;59323;50.874;7.028;2023-04-20T06:38:33;101304.91;;;6.54;78.74
71504;BME280;59323;50.874;7.028;2023-04-20T06:40:58;101301.72;;;6.44;79.61
71504;BME280;59323;50.874;7.028;2023-04-20T06:43:26;101308.09;;;6.39;80.37
71504;BME280;59323;50.874;7.028;2023-04-20T06:45:52;101305.56;;;6.34;80.23
71504;BME280;59323;50.874;7.028;2023-04-20T06:48:17;101312.06;;;6.33;81.92
71504;BME280;59323;50.874;7.028;2023-04-20T06:50:42;101301.13;;;6.29;83.23
71504;BME280;59323;50.874;7.028;2023-04-20T06:53:08;101306.69;;;6.33;82.96
71504;BME280;59323;50.874;7.028;2023-04-20T06:55:34;101306.03;;;6.36;82.68
71504;BME280;59323;50.874;7.028;2023-04-20T06:57:59;101292.38;;;6.32;83.48
71504;BME280;59323;50.874;7.028;2023-04-20T07:00:24;101298.91;;;6.31;84.21
71504;BME280;59323;50.874;7.028;2023-04-20T07:02:52;101282.72;;;6.23;84.56
71504;BME280;59323;50.874;7.028;2023-04-20T07:05:18;101295.72;;;6.29;84.85
71504;BME280;59323;50.874;7.028;2023-04-20T07:07:43;101298.41;;;6.38;85.55
71504;BME280;59323;50.874;7.028;2023-04-20T07:10:11;101299.66;;;6.41;85.29
71504;BME280;59323;50.874;7.028;2023-04-20T07:12:37;101292.19;;;6.46;86.28
71504;BME280;59323;50.874;7.028;2023-04-20T07:15:04;101295.69;;;6.55;86.33
71504;BME280;59323;50.874;7.028;2023-04-20T07:17:30;101284.22;;;6.58;86.41
71504;BME280;59323;50.874;7.028;2023-04-20T07:19:56;101283.72;;;6.65;86.85
71504;BME280;59323;50.874;7.028;2023-04-20T07:22:23;101294.06;;;6.63;86.71
71504;BME280;59323;50.874;7.028;2023-04-20T07:24:49;101289.31;;;6.60;86.95
71504;BME280;59323;50.874;7.028;2023-04-20T07:27:14;101285.50;;;6.61;87.28
71504;BME280;59323;50.874;7.028;2023-04-20T07:29:40;101283.25;;;6.63;86.86
71504;BME280;59323;50.874;7.028;2023-04-20T07:32:05;101287.50;;;6.73;86.34
71504;BME280;59323;50.874;7.028;2023-04-20T07:34:30;101288.63;;;6.72;86.10
71504;BME280;59323;50.874;7.028;2023-04-20T07:36:56;101280.53;;;6.72;86.01
71504;BME280;59323;50.874;7.028;2023-04-20T07:39:25;101291.94;;;6.77;86.28
71504;BME280;59323;50.874;7.028;2023-04-20T07:41:53;101292.56;;;6.83;85.60
71504;BME280;59323;50.874;7.028;2023-04-20T07:44:18;101277.13;;;6.83;86.07
71504;BME280;59323;50.874;7.028;2023-04-20T07:46:43;101284.72;;;6.90;85.54
71504;BME280;59323;50.874;7.028;2023-04-20T07:49:09;101291.09;;;6.85;86.26
71504;BME280;59323;50.874;7.028;2023-04-20T07:51:34;101278.91;;;6.79;85.88
71504;BME280;59323;50.874;7.028;2023-04-20T07:54:00;101279.50;;;6.85;84.99
71504;BME280;59323;50.874;7.028;2023-04-20T07:56:25;101283.94;;;6.89;85.38
71504;BME280;59323;50.874;7.028;2023-04-20T07:58:51;101275.84;;;6.89;84.98
71504;BME280;59323;50.874;7.028;2023-04-20T08:01:16;101285.84;;;6.89;85.33
71504;BME280;59323;50.874;7.028;2023-04-20T08:03:41;101273.00;;;6.86;85.48
71504;BME280;59323;50.874;7.028;2023-04-20T08:06:08;101277.88;;;6.92;85.12
71504;BME280;59323;50.874;7.028;2023-04-20T08:08:34;101273.13;;;6.89;84.36
71504;BME280;59323;50.874;7.028;2023-04-20T08:11:00;101278.66;;;6.93;85.02
71504;BME280;59323;50.874;7.028;2023-04-20T08:13:25;101279.59;;;6.97;83.63
71504;BME280;59323;50.874;7.028;2023-04-20T08:15:51;101274.72;;;6.90;83.91
71504;BME280;59323;50.874;7.028;2023-04-20T08:18:17;101272.34;;;6.89;83.91
71504;BME280;59323;50.874;7.028;2023-04-20T08:20:42;101271.03;;;6.95;84.77
71504;BME280;59323;50.874;7.028;2023-04-20T08:23:07;101271.81;;;6.95;84.56
71504;BME280;59323;50.874;7.028;2023-04-20T08:25:32;101270.25;;;6.94;85.90
71504;BME280;59323;50.874;7.028;2023-04-20T08:27:58;101270.84;;;7.00;83.71
71504;BME280;59323;50.874;7.028;2023-04-20T08:30:23;101277.69;;;6.97;84.82
71504;BME280;59323;50.874;7.028;2023-04-20T08:32:49;101271.63;;;7.00;82.90
71504;BME280;59323;50.874;7.028;2023-04-20T08:35:14;101263.84;;;6.99;83.67
71504;BME280;59323;50.874;7.028;2023-04-20T08:37:40;101266.69;;;7.03;83.19
71504;BME280;59323;50.874;7.028;2023-04-20T08:40:07;101268.88;;;7.09;84.06
71504;BME280;59323;50.874;7.028;2023-04-20T08:42:32;101270.25;;;7.24;84.33
71504;BME280;59323;50.874;7.028;2023-04-20T08:44:58;101262.28;;;7.27;84.28
71504;BME280;59323;50.874;7.028;2023-04-20T08:47:24;101255.69;;;7.37;84.04
71504;BME280;59323;50.874;7.028;2023-04-20T08:49:52;101248.75;;;7.48;83.58
71504;BME280;59323;50.874;7.028;2023-04-20T08:52:18;101254.34;;;7.64;84.54
71504;BME280;59323;50.874;7.028;2023-04-20T08:54:44;101262.72;;;7.71;81.97
71504;BME280;59323;50.874;7.028;2023-04-20T08:57:09;101252.22;;;7.70;81.86
71504;BME280;59323;50.874;7.028;2023-04-20T08:59:36;101259.69;;;7.73;79.26
71504;BME280;59323;50.874;7.028;2023-04-20T09:02:12;101259.16;;;7.58;77.79
71504;BME280;59323;50.874;7.028;2023-04-20T09:04:38;101256.34;;;7.55;79.56
71504;BME280;59323;50.874;7.028;2023-04-20T09:07:16;101247.63;;;7.49;78.40
71504;BME280;59323;50.874;7.028;2023-04-20T09:09:53;101251.84;;;7.59;79.69
71504;BME280;59323;50.874;7.028;2023-04-20T09:12:18;101257.59;;;7.57;79.33
71504;BME280;59323;50.874;7.028;2023-04-20T09:14:47;101256.38;;;7.67;79.61
71504;BME280;59323;50.874;7.028;2023-04-20T09:17:13;101253.56;;;7.63;77.92
71504;BME280;59323;50.874;7.028;2023-04-20T09:19:43;101250.84;;;7.63;79.08
71504;BME280;59323;50.874;7.028;2023-04-20T09:22:08;101246.09;;;7.60;77.64
71504;BME280;59323;50.874;7.028;2023-04-20T09:24:36;101250.34;;;7.49;79.29
71504;BME280;59323;50.874;7.028;2023-04-20T09:27:22;101262.81;;;7.42;81.02
71504;BME280;59323;50.874;7.028;2023-04-20T09:30:00;101261.03;;;7.25;80.06
71504;BME280;59323;50.874;7.028;2023-04-20T09:32:28;101249.47;;;7.16;82.26
71504;BME280;59323;50.874;7.028;2023-04-20T09:34:54;101247.38;;;7.21;84.41
71504;BME280;59323;50.874;7.028;2023-04-20T09:37:19;101258.25;;;7.34;85.60
71504;BME280;59323;50.874;7.028;2023-04-20T09:39:47;101253.78;;;7.38;85.30
71504;BME280;59323;50.874;7.028;2023-04-20T09:42:14;101259.44;;;7.45;84.42
71504;BME280;59323;50.874;7.028;2023-04-20T09:44:40;101254.75;;;7.54;83.15
71504;BME280;59323;50.874;7.028;2023-04-20T09:47:06;101248.81;;;7.60;84.29
71504;BME280;59323;50.874;7.028;2023-04-20T09:49:33;101255.41;;;7.72;84.19
71504;BME280;59323;50.874;7.028;2023-04-20T09:52:02;101255.34;;;7.80;83.02
71504;BME280;59323;50.874;7.028;2023-04-20T09:54:28;101250.84;;;7.84;80.33
71504;BME280;59323;50.874;7.028;2023-04-20T09:56:55;101248.06;;;7.93;82.68
71504;BME280;59323;50.874;7.028;2023-04-20T09:59:22;101238.47;;;7.95;81.49
71504;BME280;59323;50.874;7.028;2023-04-20T10:01:48;101243.69;;;8.01;81.67
71504;BME280;59323;50.874;7.028;2023-04-20T10:04:14;101244.47;;;8.01;79.45
71504;BME280;59323;50.874;7.028;2023-04-20T10:06:51;101248.97;;;7.97;79.48
71504;BME280;59323;50.874;7.028;2023-04-20T10:09:23;101252.31;;;7.82;79.55
71504;BME280;59323;50.874;7.028;2023-04-20T10:11:50;101254.06;;;7.78;80.39
71504;BME280;59323;50.874;7.028;2023-04-20T10:14:21;101254.69;;;7.62;79.86
71504;BME280;59323;50.874;7.028;2023-04-20T10:17:05;101247.69;;;7.61;81.69
71504;BME280;59323;50.874;7.028;2023-04-20T10:19:42;101246.34;;;7.68;82.24
71504;BME280;59323;50.874;7.028;2023-04-20T10:22:09;101242.28;;;7.82;82.32
71504;BME280;59323;50.874;7.028;2023-04-20T10:24:35;101225.63;;;7.92;80.51
71504;BME280;59323;50.874;7.028;2023-04-20T10:27:18;101222.16;;;8.04;79.96
71504;BME280;59323;50.874;7.028;2023-04-20T10:29:43;101236.53;;;8.29;78.14
71504;BME280;59323;50.874;7.028;2023-04-20T10:32:23;101215.13;;;8.36;76.62
71504;BME280;59323;50.874;7.028;2023-04-20T10:35:00;101216.63;;;8.58;77.19
71504;BME280;59323;50.874;7.028;2023-04-20T10:37:26;101214.38;;;8.72;75.36
71504;BME280;59323;50.874;7.028;2023-04-20T10:39:52;101214.44;;;9.00;75.41
71504;BME280;59323;50.874;7.028;2023-04-20T10:42:17;101207.75;;;9.10;73.22
71504;BME280;59323;50.874;7.028;2023-04-20T10:44:52;101223.13;;;9.18;70.80
71504;BME280;59323;50.874;7.028;2023-04-20T10:47:28;101225.94;;;9.09;70.03
71504;BME280;59323;50.874;7.028;2023-04-20T10:50:05;101222.00;;;9.07;68.16
71504;BME280;59323;50.874;7.028;2023-04-20T10:52:36;101214.22;;;9.05;67.92
71504;BME280;59323;50.874;7.028;2023-04-20T10:55:02;101217.03;;;8.97;67.84
71504;BME280;59323;50.874;7.028;2023-04-20T10:57:28;101226.53;;;8.90;69.78
71504;BME280;59323;50.874;7.028;2023-04-20T10:59:53;101223.63;;;8.83;68.48
71504;BME280;59323;50.874;7.028;2023-04-20T11:02:18;101214.25;;;8.81;66.87
71504;BME280;59323;50.874;7.028;2023-04-20T11:04:47;101212.56;;;8.76;67.02
71504;BME280;59323;50.874;7.028;2023-04-20T11:07:12;101220.22;;;8.74;66.58
71504;BME280;59323;50.874;7.028;2023-04-20T11:09:38;101215.59;;;8.75;68.10
71504;BME280;59323;50.874;7.028;2023-04-20T11:12:06;101204.88;;;8.78;69.06
71504;BME280;59323;50.874;7.028;2023-04-20T11:14:36;101214.88;;;9.02;67.41
71504;BME280;59323;50.874;7.028;2023-04-20T11:17:03;101204.81;;;9.27;70.64
71504;BME280;59323;50.874;7.028;2023-04-20T11:19:33;101201.59;;;9.37;67.40
71504;BME280;59323;50.874;7.028;2023-04-20T11:21:59;101201.84;;;9.60;66.61
71504;BME280;59323;50.874;7.028;2023-04-20T11:24:30;101200.31;;;9.75;64.58
71504;BME280;59323;50.874;7.028;2023-04-20T11:26:56;101205.09;;;9.94;65.60
71504;BME280;59323;50.874;7.028;2023-04-20T11:29:38;101203.88;;;9.91;62.67
71504;BME280;59323;50.874;7.028;2023-04-20T11:32:10;101197.59;;;9.75;64.79
71504;BME280;59323;50.874;7.028;2023-04-20T11:34:37;101196.19;;;9.65;66.01
71504;BME280;59323;50.874;7.028;2023-04-20T11:37:04;101208.41;;;9.59;66.20
71504;BME280;59323;50.874;7.028;2023-04-20T11:39:30;101197.06;;;9.41;65.00
71504;BME280;59323;50.874;7.028;2023-04-20T11:41:56;101193.38;;;9.34;65.23
71504;BME280;59323;50.874;7.028;2023-04-20T11:44:23;101203.72;;;9.44;66.20
71504;BME280;59323;50.874;7.028;2023-04-20T11:46:49;101202.78;;;9.52;64.74
71504;BME280;59323;50.874;7.028;2023-04-20T11:49:18;101198.53;;;9.67;64.96
71504;BME280;59323;50.874;7.028;2023-04-20T11:51:44;101195.56;;;9.72;64.89
71504;BME280;59323;50.874;7.028;2023-04-20T11:54:11;101191.69;;;9.85;63.81
71504;BME280;59323;50.874;7.028;2023-04-20T11:56:37;101189.25;;;10.11;64.79
71504;BME280;59323;50.874;7.028;2023-04-20T11:59:03;101199.28;;;10.39;63.49
71504;BME280;59323;50.874;7.028;2023-04-20T12:01:28;101184.66;;;10.59;61.52
71504;BME280;59323;50.874;7.028;2023-04-20T12:03:54;101189.47;;;10.66;61.17
71504;BME280;59323;50.874;7.028;2023-04-20T12:06:22;101193.41;;;10.68;60.61
71504;BME280;59323;50.874;7.028;2023-04-20T12:08:47;101190.16;;;10.63;61.48
71504;BME280;59323;50.874;7.028;2023-04-20T12:11:13;101191.47;;;10.37;61.47
71504;BME280;59323;50.874;7.028;2023-04-20T12:13:41;101197.88;;;10.29;61.64
71504;BME280;59323;50.874;7.028;2023-04-20T12:16:07;101196.97;;;10.09;62.61
71504;BME280;59323;50.874;7.028;2023-04-20T12:18:32;101200.91;;;9.96;62.36
71504;BME280;59323;50.874;7.028;2023-04-20T12:20:58;101189.25;;;9.96;62.23
71504;BME280;59323;50.874;7.028;2023-04-20T12:23:24;101196.53;;;10.07;64.30
71504;BME280;59323;50.874;7.028;2023-04-20T12:25:50;101200.31;;;10.18;61.59
71504;BME280;59323;50.874;7.028;2023-04-20T12:28:15;101189.91;;;10.21;61.18
71504;BME280;59323;50.874;7.028;2023-04-20T12:30:41;101191.31;;;10.30;61.52
71504;BME280;59323;50.874;7.028;2023-04-20T12:33:06;101193.53;;;10.40;61.38
71504;BME280;59323;50.874;7.028;2023-04-20T12:35:31;101187.47;;;10.47;60.45
71504;BME280;59323;50.874;7.028;2023-04-20T12:37:57;101192.19;;;10.50;58.79
71504;BME280;59323;50.874;7.028;2023-04-20T12:40:22;101183.53;;;10.44;59.91
71504;BME280;59323;50.874;7.028;2023-04-20T12:42:48;101195.34;;;10.52;59.96
71504;BME280;59323;50.874;7.028;2023-04-20T12:45:13;101178.69;;;10.54;59.94
71504;BME280;59323;50.874;7.028;2023-04-20T12:47:38;101189.56;;;10.54;58.54
71504;BME280;59323;50.874;7.028;2023-04-20T12:50:04;101184.84;;;10.51;59.52
71504;BME280;59323;50.874;7.028;2023-04-20T12:52:31;101185.28;;;10.53;57.73
71504;BME280;59323;50.874;7.028;2023-04-20T12:54:57;101167.75;;;10.50;56.39